Baldwinsville, NY (13027)

12:54 AM EDT on September 01, 2015 (GMT -0400)
Giddings Crest | | Change Station
CLOSE
Current Station
Personal Weather Station
Location: Baldwinsville, NY
Elevation: 502 ft
Nearby Weather Stations

Elev 502 ft 43.18 °N, 76.35 °W | Updated 4 minutes ago

Partly Cloudy
Partly Cloudy
63.3 °F
Feels Like 63.3 °F
N
0.0
Wind Variable Wind from SSW

Today
High -- | Low -- °F
--% Chance of Precip.
Yesterday
High -- | Low -- °F
Precip. -- in
6:29 AM 7:40 PM
Waning Gibbous, 91% visible
Pressure 30.04 in
Visibility 3.0 miles
Clouds Clear
Dew Point 61 °F
Humidity 91%
Rainfall 0.00 in
Snow Depth Not available.
UV 0 out of 12
Pollen 9.70 out of 12
Air Quality Not available.
Flu Activity Not available.
SPECI KFZY 010443Z AUTO 00000KT 3SM BR CLR 17/16 A3004 RMK AO2 T01720161
Pressure 30.04 in
Visibility 3.0 miles
Clouds Clear
Dew Point 61 °F
Humidity 91%
Rainfall 0.00 in
Snow Depth Not available.
UV 0 out of 12
Pollen 9.70 out of 12
Air Quality Not available.
Flu Activity Not available.
SPECI KFZY 010443Z AUTO 00000KT 3SM BR CLR 17/16 A3004 RMK AO2 T01720161

10-Day Weather Forecast

×

Almanac

Astronomy

Sep. 01, 2015 Rise Set
Actual Time
Civil Twilight
Nautical Twilight
Astronomical Twilight
Moon
Length of Visible Light
Length of Day
Tomorrow will be .
, % of the Moon is Illuminated

Today's Extremes

State Highs State Lows

Community

WunderPhotos

Upload Photos

1,851,479 photos uploaded!

WunderBlogs® & News

Nearby

Air Quality

  Air Quality AQ Index Pollutant
Not available.

Snow Depth

Station Depth Elevation

Earthquake Activity

City Distance Mag. Time & Date
Minimum magnitude displayed is 2.5.

Coastal Water Temperatures

Place Temperature

Stations

Nearby Weather Stations

Station Location Temp. Windchill Dew Point Humidity Wind Precip. Elev Updated Type